createdAt,value
2017-07-05T00:00:35.466Z,17.10
2017-07-05T00:03:01.991Z,17.10
2017-07-05T00:05:29.241Z,17.00
2017-07-05T00:07:56.534Z,17.00
2017-07-05T00:10:23.016Z,17.00
2017-07-05T00:12:50.254Z,16.90
2017-07-05T00:15:16.765Z,16.90
2017-07-05T00:17:43.278Z,16.90
2017-07-05T00:20:09.814Z,16.90
2017-07-05T00:22:36.326Z,16.90
2017-07-05T00:25:02.827Z,16.80
2017-07-05T00:27:30.141Z,16.80
2017-07-05T00:29:56.626Z,16.70
2017-07-05T00:32:23.868Z,16.70
2017-07-05T00:34:51.166Z,16.70
2017-07-05T00:37:17.637Z,16.60
2017-07-05T00:39:44.151Z,16.70
2017-07-05T00:42:10.663Z,16.70
2017-07-05T00:44:37.163Z,16.60
2017-07-05T00:47:03.664Z,16.60
2017-07-05T00:49:30.131Z,16.60
2017-07-05T00:51:56.664Z,16.60
2017-07-05T00:54:23.149Z,16.50
2017-07-05T00:56:49.616Z,16.50
2017-07-05T00:59:16.870Z,16.50
2017-07-05T01:01:44.087Z,16.50
2017-07-05T01:04:10.622Z,16.50
2017-07-05T01:06:37.096Z,16.40
2017-07-05T01:09:03.630Z,16.40
2017-07-05T01:11:30.158Z,16.40
2017-07-05T01:13:56.678Z,16.40
2017-07-05T01:16:23.886Z,16.40
2017-07-05T01:18:50.433Z,16.30
2017-07-05T01:21:16.933Z,16.40
2017-07-05T01:23:43.431Z,16.30
2017-07-05T01:26:10.682Z,16.20
2017-07-05T01:28:37.959Z,16.20
2017-07-05T01:31:04.498Z,16.20
2017-07-05T01:33:30.991Z,16.20
2017-07-05T01:35:58.283Z,16.10
2017-07-05T01:38:24.763Z,16.10
2017-07-05T01:40:51.281Z,16.10
2017-07-05T01:43:17.754Z,16.10
2017-07-05T01:45:44.287Z,16.10
2017-07-05T01:48:10.853Z,16.10
2017-07-05T01:50:37.390Z,16.00
2017-07-05T01:53:03.935Z,16.00
2017-07-05T01:55:30.520Z,16.00
2017-07-05T01:57:57.091Z,15.90
2017-07-05T02:00:23.562Z,15.90
2017-07-05T02:02:50.032Z,15.90
2017-07-05T02:05:16.564Z,15.80
2017-07-05T02:07:43.066Z,15.80
2017-07-05T02:10:10.331Z,15.80
2017-07-05T02:12:37.601Z,15.80
2017-07-05T02:15:04.070Z,15.80
2017-07-05T02:17:30.546Z,15.80
2017-07-05T02:19:57.792Z,15.70
2017-07-05T02:22:24.281Z,15.70
2017-07-05T02:24:50.795Z,15.70
2017-07-05T02:27:17.266Z,15.60
2017-07-05T02:29:50.955Z,15.60
2017-07-05T02:32:17.454Z,15.60
2017-07-05T02:34:43.967Z,15.60
2017-07-05T02:37:10.504Z,15.60
2017-07-05T02:39:37.037Z,15.50
2017-07-05T02:42:03.537Z,15.50
2017-07-05T02:44:30.075Z,15.50
2017-07-05T02:46:56.571Z,15.50
2017-07-05T02:49:23.034Z,15.50
2017-07-05T02:51:49.745Z,15.40
2017-07-05T02:54:16.201Z,15.40
2017-07-05T02:56:42.690Z,15.40
2017-07-05T02:59:09.226Z,15.40
2017-07-05T03:01:35.692Z,15.30
2017-07-05T03:04:02.207Z,15.30
2017-07-05T03:06:28.706Z,15.30
2017-07-05T03:08:55.257Z,15.30
2017-07-05T03:11:21.757Z,15.30
2017-07-05T03:13:48.978Z,15.20
2017-07-05T03:16:15.500Z,15.20
2017-07-05T03:18:41.969Z,15.20
2017-07-05T03:21:09.168Z,15.10
2017-07-05T03:23:35.682Z,15.10
2017-07-05T03:26:02.195Z,15.10
2017-07-05T03:28:29.397Z,15.10
2017-07-05T03:30:56.140Z,15.10
2017-07-05T03:33:22.606Z,15.10
2017-07-05T03:35:49.830Z,15.00
2017-07-05T03:38:16.362Z,15.00
2017-07-05T03:40:43.104Z,15.00
2017-07-05T03:43:09.587Z,15.00
2017-07-05T03:45:36.041Z,15.00
2017-07-05T03:48:02.578Z,15.00
2017-07-05T03:50:29.084Z,15.00
2017-07-05T03:52:55.766Z,15.00
2017-07-05T03:55:22.257Z,15.00
2017-07-05T03:57:48.778Z,15.10
2017-07-05T04:00:15.281Z,15.10
2017-07-05T04:02:41.833Z,15.10
2017-07-05T04:05:09.058Z,15.10
2017-07-05T04:07:35.516Z,15.10
2017-07-05T04:10:02.775Z,15.20
2017-07-05T04:12:29.285Z,15.10
2017-07-05T04:14:55.818Z,15.10
2017-07-05T04:17:22.270Z,15.20
2017-07-05T04:19:49.511Z,15.20
2017-07-05T04:22:16.699Z,15.30
2017-07-05T04:24:43.174Z,15.30
2017-07-05T04:27:09.694Z,15.30
2017-07-05T04:29:36.242Z,15.40
2017-07-05T04:32:02.738Z,15.50
2017-07-05T04:34:29.210Z,15.60
2017-07-05T04:36:55.732Z,15.70
2017-07-05T04:39:22.211Z,15.80
2017-07-05T04:41:48.703Z,15.90
2017-07-05T04:44:15.203Z,16.10
2017-07-05T04:46:41.698Z,16.20
2017-07-05T04:49:08.202Z,16.40
2017-07-05T04:51:34.707Z,16.50
2017-07-05T04:54:01.176Z,16.60
2017-07-05T04:56:27.779Z,16.70
2017-07-05T04:58:54.217Z,16.90
2017-07-05T05:01:20.754Z,17.00
2017-07-05T05:03:47.221Z,17.10
2017-07-05T05:06:14.412Z,17.30
2017-07-05T05:08:40.925Z,17.30
2017-07-05T05:11:07.400Z,17.50
2017-07-05T05:13:33.940Z,17.70
2017-07-05T05:16:00.399Z,17.90
2017-07-05T05:18:27.653Z,18.30
2017-07-05T05:20:54.877Z,18.60
2017-07-05T05:23:21.368Z,18.50
2017-07-05T05:25:47.876Z,18.80
2017-07-05T05:28:14.389Z,19.10
2017-07-05T05:30:41.653Z,19.70
2017-07-05T05:33:08.936Z,20.00
2017-07-05T05:35:35.451Z,20.00
2017-07-05T05:38:01.963Z,20.20
2017-07-05T05:40:29.189Z,20.80
2017-07-05T05:42:55.709Z,20.80
2017-07-05T05:45:22.206Z,21.00
2017-07-05T05:47:48.664Z,21.30
2017-07-05T05:50:15.182Z,21.50
2017-07-05T05:52:41.658Z,21.80
2017-07-05T05:55:08.157Z,22.00
2017-07-05T05:57:34.655Z,22.20
2017-07-05T06:00:01.206Z,22.50
2017-07-05T06:02:27.701Z,22.70
2017-07-05T06:04:54.959Z,23.10
2017-07-05T06:07:22.207Z,23.40
2017-07-05T06:09:49.435Z,23.60
2017-07-05T06:12:15.967Z,23.60
2017-07-05T06:14:42.446Z,23.80
2017-07-05T06:17:08.967Z,23.90
2017-07-05T06:19:36.205Z,24.30
2017-07-05T06:22:03.778Z,24.50
2017-07-05T06:24:30.323Z,24.50
2017-07-05T06:26:56.820Z,24.70
2017-07-05T06:29:23.348Z,24.90
2017-07-05T06:31:50.735Z,25.10
2017-07-05T06:34:17.219Z,25.20
2017-07-05T06:36:43.766Z,25.40
2017-07-05T06:39:10.248Z,25.60
2017-07-05T06:41:36.728Z,25.80
2017-07-05T06:44:03.250Z,26.10
2017-07-05T06:46:29.734Z,26.30
2017-07-05T06:48:56.233Z,26.40
2017-07-05T06:51:22.725Z,26.60
2017-07-05T06:53:49.186Z,26.90
2017-07-05T06:56:15.708Z,27.00
2017-07-05T06:58:42.210Z,27.20
2017-07-05T07:01:08.882Z,27.30
2017-07-05T07:03:35.374Z,27.50
2017-07-05T07:06:01.860Z,27.60
2017-07-05T07:08:28.364Z,27.70
2017-07-05T07:10:54.841Z,27.80
2017-07-05T07:13:22.117Z,28.10
2017-07-05T07:15:48.616Z,28.10
2017-07-05T07:18:15.685Z,28.30
2017-07-05T07:20:42.934Z,28.60
2017-07-05T07:23:09.457Z,28.60
2017-07-05T07:25:36.718Z,28.90
2017-07-05T07:28:03.979Z,29.10
2017-07-05T07:30:33.825Z,29.10
2017-07-05T07:33:00.322Z,29.40
2017-07-05T07:35:26.825Z,29.60
2017-07-05T07:37:53.362Z,29.90
2017-07-05T07:40:19.840Z,30.20
2017-07-05T07:42:46.372Z,30.40
2017-07-05T07:45:12.866Z,30.60
2017-07-05T07:47:39.358Z,30.80
2017-07-05T07:50:05.863Z,30.90
2017-07-05T07:52:32.334Z,30.90
2017-07-05T07:54:58.879Z,31.10
2017-07-05T07:57:25.720Z,31.20
2017-07-05T07:59:52.251Z,31.30
2017-07-05T08:02:18.760Z,31.40
2017-07-05T08:04:45.281Z,31.50
2017-07-05T08:07:11.809Z,31.40
2017-07-05T08:09:38.281Z,31.50
2017-07-05T08:12:04.801Z,31.70
2017-07-05T08:14:31.346Z,31.80
2017-07-05T08:16:57.845Z,31.80
2017-07-05T08:19:24.337Z,31.90
2017-07-05T08:21:51.624Z,32.00
2017-07-05T08:24:18.123Z,32.00
2017-07-05T08:26:46.285Z,32.20
2017-07-05T08:29:12.786Z,32.20
2017-07-05T08:31:39.657Z,32.30
2017-07-05T08:34:06.195Z,32.50
2017-07-05T08:36:33.420Z,32.60
2017-07-05T08:38:59.878Z,32.60
2017-07-05T08:41:27.137Z,32.90
2017-07-05T08:43:54.416Z,33.00
2017-07-05T08:46:20.877Z,33.00
2017-07-05T08:48:47.410Z,33.20
2017-07-05T08:51:13.888Z,33.20
2017-07-05T08:53:41.138Z,33.30
2017-07-05T08:56:08.353Z,33.40
2017-07-05T08:58:35.087Z,33.30
2017-07-05T09:01:01.560Z,33.50
2017-07-05T09:03:28.773Z,33.60
2017-07-05T09:05:55.316Z,33.60
2017-07-05T09:08:21.778Z,33.80
2017-07-05T09:10:48.989Z,34.40
2017-07-05T09:13:15.511Z,34.40
2017-07-05T09:15:42.003Z,34.80
2017-07-05T09:18:08.613Z,35.10
2017-07-05T09:20:35.829Z,35.40
2017-07-05T09:23:02.321Z,35.40
2017-07-05T09:25:28.848Z,35.60
2017-07-05T09:27:55.339Z,35.80
2017-07-05T09:30:21.866Z,35.80
2017-07-05T09:32:48.393Z,35.90
2017-07-05T09:35:14.891Z,35.80
2017-07-05T09:37:41.409Z,35.70
2017-07-05T09:40:08.652Z,35.40
2017-07-05T09:42:35.918Z,35.30
2017-07-05T09:45:02.404Z,35.30
2017-07-05T09:47:28.892Z,35.30
2017-07-05T09:49:55.424Z,35.20
2017-07-05T09:52:21.920Z,35.30
2017-07-05T09:54:48.389Z,35.30
2017-07-05T09:57:16.008Z,35.20
2017-07-05T09:59:42.487Z,35.10
2017-07-05T10:02:09.155Z,34.90
2017-07-05T10:04:35.986Z,34.90
2017-07-05T10:07:02.487Z,34.80
2017-07-05T10:09:29.023Z,34.80
2017-07-05T10:11:55.493Z,34.60
2017-07-05T10:14:21.976Z,34.50
2017-07-05T10:16:49.239Z,34.40
2017-07-05T10:19:15.704Z,34.40
2017-07-05T10:21:42.220Z,34.30
2017-07-05T10:24:08.734Z,34.30
2017-07-05T10:26:35.250Z,34.40
2017-07-05T10:29:02.464Z,34.40
2017-07-05T10:31:28.941Z,34.30
2017-07-05T10:33:55.464Z,34.40
2017-07-05T10:36:22.679Z,34.40
2017-07-05T10:38:49.158Z,34.40
2017-07-05T10:41:15.691Z,34.40
2017-07-05T10:43:42.218Z,34.30
2017-07-05T10:46:09.465Z,34.10
2017-07-05T10:48:36.684Z,34.10
2017-07-05T10:51:03.389Z,34.10
2017-07-05T10:53:29.918Z,34.10
2017-07-05T10:55:56.409Z,34.10
2017-07-05T10:58:22.978Z,34.10
2017-07-05T11:00:49.452Z,34.00
2017-07-05T11:03:15.919Z,33.90
2017-07-05T11:05:43.172Z,33.70
2017-07-05T11:08:09.636Z,33.60
2017-07-05T11:10:36.216Z,33.60
2017-07-05T11:13:02.681Z,33.50
2017-07-05T11:15:29.155Z,33.40
2017-07-05T11:17:55.628Z,33.30
2017-07-05T11:20:22.901Z,32.80
2017-07-05T11:22:49.401Z,32.80
2017-07-05T11:25:15.929Z,32.50
2017-07-05T11:27:42.420Z,32.40
2017-07-05T11:30:08.958Z,32.20
2017-07-05T11:32:36.892Z,32.10
2017-07-05T11:35:05.210Z,31.90
2017-07-05T11:37:31.948Z,31.80
2017-07-05T11:39:58.469Z,31.60
2017-07-05T11:42:25.022Z,31.50
2017-07-05T11:44:51.563Z,31.40
2017-07-05T11:47:18.063Z,31.30
2017-07-05T11:49:44.614Z,31.10
2017-07-05T11:52:11.100Z,31.00
2017-07-05T11:54:38.332Z,30.90
2017-07-05T11:57:05.027Z,30.90
2017-07-05T11:59:31.510Z,30.80
2017-07-05T12:01:58.716Z,30.70
2017-07-05T12:04:25.213Z,30.70
2017-07-05T12:06:51.684Z,30.70
2017-07-05T12:09:18.185Z,30.60
2017-07-05T12:11:44.649Z,30.60
2017-07-05T12:14:11.138Z,30.50
2017-07-05T12:16:37.641Z,30.50
2017-07-05T12:19:04.114Z,30.40
2017-07-05T12:21:30.620Z,30.40
2017-07-05T12:23:57.880Z,30.30
2017-07-05T12:26:24.374Z,30.30
2017-07-05T12:28:51.004Z,30.30
2017-07-05T12:31:17.466Z,30.20
2017-07-05T12:33:44.732Z,30.20
2017-07-05T12:36:11.244Z,30.20
2017-07-05T12:38:37.744Z,30.10
2017-07-05T12:41:04.245Z,30.10
2017-07-05T12:43:30.763Z,30.00
2017-07-05T12:45:58.148Z,30.00
2017-07-05T12:48:24.633Z,29.90
2017-07-05T12:50:51.850Z,30.00
2017-07-05T12:53:18.347Z,29.90
2017-07-05T12:55:44.887Z,30.00
2017-07-05T12:58:11.396Z,29.90
2017-07-05T13:00:38.008Z,29.90
2017-07-05T13:03:04.488Z,29.90
2017-07-05T13:05:30.962Z,29.90
2017-07-05T13:07:57.457Z,29.90
2017-07-05T13:10:23.929Z,29.90
2017-07-05T13:12:50.452Z,29.90
2017-07-05T13:15:16.924Z,29.90
2017-07-05T13:17:44.192Z,29.80
2017-07-05T13:20:10.750Z,29.80
2017-07-05T13:22:37.206Z,29.80
2017-07-05T13:25:03.912Z,29.70
2017-07-05T13:27:30.372Z,29.70
2017-07-05T13:29:56.864Z,29.60
2017-07-05T13:32:23.377Z,29.60
2017-07-05T13:34:50.640Z,29.50
2017-07-05T13:37:17.129Z,29.40
2017-07-05T13:39:43.656Z,29.40
2017-07-05T13:42:10.118Z,29.40
2017-07-05T13:44:37.329Z,29.30
2017-07-05T13:47:03.820Z,29.30
2017-07-05T13:49:30.321Z,29.20
2017-07-05T13:51:56.817Z,29.20
2017-07-05T13:54:23.482Z,29.20
2017-07-05T13:56:49.932Z,29.20
2017-07-05T13:59:17.153Z,29.10
2017-07-05T14:01:43.762Z,29.10
2017-07-05T14:04:10.222Z,29.10
2017-07-05T14:06:36.705Z,29.10
2017-07-05T14:09:03.362Z,29.10
2017-07-05T14:11:29.851Z,29.10
2017-07-05T14:13:57.113Z,29.00
2017-07-05T14:16:24.345Z,29.00
2017-07-05T14:18:51.758Z,29.00
2017-07-05T14:21:18.260Z,29.00
2017-07-05T14:23:44.736Z,28.90
2017-07-05T14:26:11.249Z,29.00
2017-07-05T14:28:37.744Z,28.90
2017-07-05T14:31:04.970Z,28.90
2017-07-05T14:33:31.443Z,28.90
2017-07-05T14:35:57.946Z,28.90
2017-07-05T14:38:25.187Z,28.80
2017-07-05T14:40:51.735Z,28.80
2017-07-05T14:43:18.970Z,28.80
2017-07-05T14:45:45.483Z,28.80
2017-07-05T14:48:11.968Z,28.80
2017-07-05T14:50:38.446Z,28.70
2017-07-05T14:53:04.984Z,28.70
2017-07-05T14:55:31.522Z,28.70
2017-07-05T14:57:58.213Z,28.70
2017-07-05T15:00:24.695Z,28.60
2017-07-05T15:02:51.169Z,28.60
2017-07-05T15:05:17.714Z,28.60
2017-07-05T15:07:44.359Z,28.50
2017-07-05T15:10:10.838Z,28.50
2017-07-05T15:12:37.360Z,28.50
2017-07-05T15:15:03.854Z,28.40
2017-07-05T15:17:30.362Z,28.40
2017-07-05T15:19:57.656Z,28.40
2017-07-05T15:22:24.125Z,28.30
2017-07-05T15:24:50.594Z,28.30
2017-07-05T15:27:17.082Z,28.30
2017-07-05T15:29:43.542Z,28.20
2017-07-05T15:32:10.789Z,28.20
2017-07-05T15:34:38.025Z,28.10
2017-07-05T15:37:05.250Z,28.10
2017-07-05T15:39:31.736Z,28.10
2017-07-05T15:41:58.189Z,28.10
2017-07-05T15:44:24.702Z,28.10
2017-07-05T15:46:51.190Z,28.10
2017-07-05T15:49:17.650Z,28.00
2017-07-05T15:51:44.179Z,28.10
2017-07-05T15:54:10.638Z,28.00
2017-07-05T15:56:37.315Z,28.00
2017-07-05T15:59:03.788Z,28.00
2017-07-05T16:01:31.006Z,28.00
2017-07-05T16:03:57.531Z,27.90
2017-07-05T16:06:24.005Z,28.00
2017-07-05T16:08:51.499Z,28.00
2017-07-05T16:11:18.030Z,28.00
2017-07-05T16:13:44.499Z,28.10
2017-07-05T16:16:11.007Z,28.00
2017-07-05T16:18:37.497Z,28.10
2017-07-05T16:21:04.037Z,28.00
2017-07-05T16:23:30.573Z,28.00
2017-07-05T16:25:57.074Z,28.00
2017-07-05T16:28:24.352Z,27.90
2017-07-05T16:30:50.841Z,27.90
2017-07-05T16:33:17.362Z,27.90
2017-07-05T16:35:43.890Z,27.80
2017-07-05T16:38:10.359Z,27.80
2017-07-05T16:40:37.603Z,27.80
2017-07-05T16:43:05.034Z,27.80
2017-07-05T16:45:31.546Z,27.80
2017-07-05T16:47:58.005Z,27.80
2017-07-05T16:50:24.542Z,27.80
2017-07-05T16:52:51.032Z,27.70
2017-07-05T16:55:17.502Z,27.70
2017-07-05T16:57:44.028Z,27.60
2017-07-05T17:00:10.522Z,27.60
2017-07-05T17:02:36.999Z,27.60
2017-07-05T17:05:03.561Z,27.50
2017-07-05T17:07:30.833Z,27.50
2017-07-05T17:09:57.397Z,27.50
2017-07-05T17:12:23.870Z,27.50
2017-07-05T17:14:50.483Z,27.40
2017-07-05T17:17:16.976Z,27.40
2017-07-05T17:19:43.454Z,27.40
2017-07-05T17:22:09.967Z,27.40
2017-07-05T17:24:36.429Z,27.30
2017-07-05T17:27:02.941Z,27.30
2017-07-05T17:29:29.420Z,27.30
2017-07-05T17:31:56.825Z,27.30
2017-07-05T17:34:23.330Z,27.30
2017-07-05T17:36:49.801Z,27.30
2017-07-05T17:39:16.344Z,27.30
2017-07-05T17:41:42.836Z,27.20
2017-07-05T17:44:09.370Z,27.20
2017-07-05T17:46:35.852Z,27.20
2017-07-05T17:49:02.344Z,27.10
2017-07-05T17:51:29.177Z,27.10
2017-07-05T17:53:55.663Z,27.00
2017-07-05T17:56:22.920Z,26.90
2017-07-05T17:58:50.183Z,26.80
2017-07-05T18:01:16.664Z,26.90
2017-07-05T18:03:43.404Z,26.80
2017-07-05T18:06:09.870Z,26.80
2017-07-05T18:08:37.114Z,26.70
2017-07-05T18:11:03.608Z,26.60
2017-07-05T18:13:30.070Z,26.60
2017-07-05T18:15:56.576Z,26.60
2017-07-05T18:18:23.072Z,26.50
2017-07-05T18:20:49.586Z,26.40
2017-07-05T18:23:16.805Z,26.40
2017-07-05T18:25:43.315Z,26.40
2017-07-05T18:28:09.784Z,26.40
2017-07-05T18:30:36.493Z,26.40
2017-07-05T18:33:03.002Z,26.30
2017-07-05T18:35:29.493Z,26.30
2017-07-05T18:37:56.027Z,26.20
2017-07-05T18:40:23.235Z,26.10
2017-07-05T18:42:49.721Z,26.10
2017-07-05T18:45:17.016Z,26.00
2017-07-05T18:47:43.484Z,26.00
2017-07-05T18:50:09.968Z,26.00
2017-07-05T18:52:36.626Z,26.00
2017-07-05T18:55:03.127Z,25.90
2017-07-05T18:57:29.673Z,25.90
2017-07-05T18:59:56.200Z,25.80
2017-07-05T19:02:22.696Z,25.80
2017-07-05T19:04:49.411Z,25.70
2017-07-05T19:07:15.898Z,25.70
2017-07-05T19:09:43.236Z,25.60
2017-07-05T19:12:10.634Z,25.60
2017-07-05T19:14:37.110Z,25.50
2017-07-05T19:17:04.461Z,25.40
2017-07-05T19:19:31.727Z,25.40
2017-07-05T19:21:58.213Z,25.40
2017-07-05T19:24:24.697Z,25.30
2017-07-05T19:26:51.249Z,25.20
2017-07-05T19:29:17.754Z,25.10
2017-07-05T19:31:44.286Z,25.10
2017-07-05T19:34:11.515Z,24.90
2017-07-05T19:36:38.757Z,24.90
2017-07-05T19:39:05.278Z,24.80
2017-07-05T19:41:31.749Z,24.80
2017-07-05T19:43:58.995Z,24.60
2017-07-05T19:46:26.237Z,24.50
2017-07-05T19:48:52.952Z,24.50
2017-07-05T19:51:19.413Z,24.50
2017-07-05T19:53:46.640Z,24.30
2017-07-05T19:56:13.167Z,24.30
2017-07-05T19:58:39.694Z,24.30
2017-07-05T20:01:06.257Z,24.20
2017-07-05T20:03:32.759Z,24.10
2017-07-05T20:05:59.502Z,24.00
2017-07-05T20:08:25.977Z,24.00
2017-07-05T20:10:53.208Z,23.90
2017-07-05T20:13:19.722Z,23.80
2017-07-05T20:15:46.227Z,23.80
2017-07-05T20:18:12.724Z,23.70
2017-07-05T20:20:39.976Z,23.60
2017-07-05T20:23:07.478Z,23.50
2017-07-05T20:25:33.962Z,23.50
2017-07-05T20:28:01.231Z,23.40
2017-07-05T20:30:27.822Z,23.30
2017-07-05T20:32:54.328Z,23.30
2017-07-05T20:35:20.858Z,23.20
2017-07-05T20:37:47.350Z,23.10
2017-07-05T20:40:14.750Z,23.00
2017-07-05T20:42:41.219Z,22.90
2017-07-05T20:45:07.714Z,22.90
2017-07-05T20:47:34.256Z,22.80
2017-07-05T20:50:00.760Z,22.80
2017-07-05T20:52:27.307Z,22.70
2017-07-05T20:54:53.828Z,22.60
2017-07-05T20:57:20.346Z,22.50
2017-07-05T20:59:46.856Z,22.50
2017-07-05T21:02:13.372Z,22.40
2017-07-05T21:04:39.847Z,22.40
2017-07-05T21:07:07.443Z,22.30
2017-07-05T21:09:33.973Z,22.30
2017-07-05T21:12:00.482Z,22.20
2017-07-05T21:14:27.019Z,22.20
2017-07-05T21:16:53.491Z,22.10
2017-07-05T21:19:19.962Z,22.10
2017-07-05T21:21:46.456Z,22.00
2017-07-05T21:24:12.927Z,22.00
2017-07-05T21:26:40.185Z,21.80
2017-07-05T21:29:06.675Z,21.80
2017-07-05T21:31:33.199Z,21.80
2017-07-05T21:33:59.702Z,21.70
2017-07-05T21:36:26.236Z,21.70
2017-07-05T21:38:52.770Z,21.60
2017-07-05T21:41:19.254Z,21.60
2017-07-05T21:43:46.481Z,21.50
2017-07-05T21:46:13.117Z,21.50
2017-07-05T21:48:39.615Z,21.50
2017-07-05T21:51:06.081Z,21.40
2017-07-05T21:53:32.610Z,21.40
2017-07-05T21:55:59.095Z,21.30
2017-07-05T21:58:25.613Z,21.30
2017-07-05T22:00:52.904Z,21.20
2017-07-05T22:03:19.357Z,21.20
2017-07-05T22:05:45.877Z,21.20
2017-07-05T22:08:12.366Z,21.10
2017-07-05T22:10:39.760Z,21.00
2017-07-05T22:13:06.227Z,21.00
2017-07-05T22:15:32.699Z,21.00
2017-07-05T22:17:59.226Z,20.90
2017-07-05T22:20:25.716Z,20.90
2017-07-05T22:22:52.196Z,20.80
2017-07-05T22:25:18.723Z,20.80
2017-07-05T22:27:45.958Z,20.70
2017-07-05T22:30:13.236Z,20.70
2017-07-05T22:32:39.715Z,20.70
2017-07-05T22:35:06.196Z,20.70
2017-07-05T22:37:32.697Z,20.60
2017-07-05T22:39:59.170Z,20.60
2017-07-05T22:42:25.942Z,20.50
2017-07-05T22:44:52.477Z,20.50
2017-07-05T22:47:18.974Z,20.50
2017-07-05T22:49:45.548Z,20.40
2017-07-05T22:52:12.020Z,20.40
2017-07-05T22:54:39.264Z,20.30
2017-07-05T22:57:06.474Z,20.30
2017-07-05T22:59:32.976Z,20.30
2017-07-05T23:01:59.482Z,20.30
2017-07-05T23:04:26.723Z,20.20
2017-07-05T23:06:53.247Z,20.20
2017-07-05T23:09:19.736Z,20.10
2017-07-05T23:11:46.255Z,20.10
2017-07-05T23:14:12.765Z,20.10
2017-07-05T23:16:40.019Z,20.00
2017-07-05T23:19:07.256Z,20.00
2017-07-05T23:21:34.510Z,20.00
2017-07-05T23:24:01.750Z,19.90
2017-07-05T23:26:28.286Z,19.90
2017-07-05T23:28:54.990Z,19.90
2017-07-05T23:31:21.476Z,19.90
2017-07-05T23:33:48.713Z,19.80
2017-07-05T23:36:15.984Z,19.80
2017-07-05T23:38:42.508Z,19.70
2017-07-05T23:41:09.760Z,19.70
2017-07-05T23:43:36.255Z,19.70
2017-07-05T23:46:02.745Z,19.70
2017-07-05T23:48:29.256Z,19.60
2017-07-05T23:50:56.466Z,19.60
2017-07-05T23:53:22.977Z,19.50
2017-07-05T23:55:49.416Z,19.50
2017-07-05T23:58:15.934Z,19.50
